createdAt,value
2019-03-01T00:00:32.174Z,5.13
2019-03-01T00:03:05.662Z,5.03
2019-03-01T00:06:02.111Z,5.83
2019-03-01T00:08:51.983Z,5.30
2019-03-01T00:11:34.536Z,4.63
2019-03-01T00:14:41.890Z,5.33
2019-03-01T00:18:21.487Z,5.40
2019-03-01T00:21:03.269Z,5.70
2019-03-01T00:24:15.036Z,5.13
2019-03-01T00:27:04.457Z,5.83
2019-03-01T00:30:03.968Z,6.30
2019-03-01T00:33:10.269Z,5.43
2019-03-01T00:36:37.382Z,5.63
2019-03-01T00:39:45.614Z,5.03
2019-03-01T00:42:45.880Z,7.67
2019-03-01T00:45:17.680Z,5.20
2019-03-01T00:47:49.371Z,5.00
2019-03-01T00:50:21.080Z,5.53
2019-03-01T00:52:52.723Z,6.50
2019-03-01T00:55:24.345Z,5.40
2019-03-01T00:57:56.205Z,6.20
2019-03-01T01:00:39.807Z,5.93
2019-03-01T01:03:11.453Z,5.60
2019-03-01T01:05:43.272Z,5.67
2019-03-01T01:08:15.239Z,6.00
2019-03-01T01:10:46.966Z,5.57
2019-03-01T01:13:18.751Z,5.30
2019-03-01T01:15:50.502Z,6.23
2019-03-01T01:18:22.208Z,5.50
2019-03-01T01:20:53.837Z,5.33
2019-03-01T01:23:26.876Z,5.33
2019-03-01T01:25:58.677Z,6.40
2019-03-01T01:28:30.495Z,5.42
2019-03-01T01:31:02.386Z,6.17
2019-03-01T01:33:34.260Z,5.87
2019-03-01T01:36:06.136Z,6.23
2019-03-01T01:38:37.833Z,5.60
2019-03-01T01:41:09.424Z,5.93
2019-03-01T01:43:41.135Z,5.93
2019-03-01T01:46:12.957Z,5.17
2019-03-01T01:48:44.705Z,5.97
2019-03-01T01:51:16.335Z,5.33
2019-03-01T01:53:48.112Z,5.43
2019-03-01T01:56:19.727Z,5.03
2019-03-01T01:58:51.535Z,5.80
2019-03-01T02:01:23.398Z,5.30
2019-03-01T02:03:55.283Z,5.60
2019-03-01T02:06:27.263Z,5.80
2019-03-01T02:08:59.053Z,4.90
2019-03-01T02:11:30.736Z,4.87
2019-03-01T02:14:02.375Z,5.03
2019-03-01T02:16:34.047Z,5.23
2019-03-01T02:19:05.805Z,5.63
2019-03-01T02:21:38.042Z,5.57
2019-03-01T02:24:09.816Z,5.43
2019-03-01T02:26:41.465Z,5.23
2019-03-01T02:29:13.311Z,5.27
2019-03-01T02:31:50.405Z,5.43
2019-03-01T02:34:22.160Z,5.40
2019-03-01T02:36:53.948Z,5.67
2019-03-01T02:39:25.672Z,5.27
2019-03-01T02:41:57.365Z,5.90
2019-03-01T02:44:28.951Z,5.30
2019-03-01T02:47:00.538Z,5.50
2019-03-01T02:49:32.401Z,4.87
2019-03-01T02:52:04.146Z,5.20
2019-03-01T02:54:36.011Z,4.83
2019-03-01T02:57:07.549Z,4.90
2019-03-01T02:59:39.222Z,4.73
2019-03-01T03:02:10.999Z,5.20
2019-03-01T03:04:42.728Z,4.77
2019-03-01T03:07:19.538Z,5.43
2019-03-01T03:09:51.269Z,4.67
2019-03-01T03:12:23.093Z,5.00
2019-03-01T03:14:54.836Z,4.60
2019-03-01T03:17:26.620Z,4.77
2019-03-01T03:19:58.207Z,5.30
2019-03-01T03:22:29.893Z,5.60
2019-03-01T03:25:01.565Z,4.77
2019-03-01T03:27:33.339Z,4.50
2019-03-01T03:30:06.022Z,4.43
2019-03-01T03:32:38.011Z,4.93
2019-03-01T03:35:09.999Z,5.60
2019-03-01T03:37:41.722Z,4.40
2019-03-01T03:40:13.804Z,5.43
2019-03-01T03:42:45.595Z,5.20
2019-03-01T03:45:17.487Z,4.70
2019-03-01T03:47:49.376Z,4.67
2019-03-01T03:50:21.064Z,5.43
2019-03-01T03:52:52.898Z,6.53
2019-03-01T03:55:24.631Z,6.87
2019-03-01T03:57:56.851Z,6.70
2019-03-01T04:00:28.760Z,5.97
2019-03-01T04:03:01.290Z,6.33
2019-03-01T04:05:33.173Z,6.23
2019-03-01T04:08:04.848Z,7.90
2019-03-01T04:10:36.580Z,8.57
2019-03-01T04:13:08.294Z,5.77
2019-03-01T04:15:39.829Z,12.23
2019-03-01T04:18:11.582Z,6.70
2019-03-01T04:20:43.358Z,4.93
2019-03-01T04:23:15.115Z,5.00
2019-03-01T04:25:46.883Z,5.53
2019-03-01T04:28:18.581Z,4.40
2019-03-01T04:30:50.261Z,4.70
2019-03-01T04:33:22.172Z,5.03
2019-03-01T04:35:53.867Z,4.97
2019-03-01T04:38:25.583Z,5.10
2019-03-01T04:40:57.361Z,4.87
2019-03-01T04:43:29.098Z,4.77
2019-03-01T04:46:02.012Z,5.10
2019-03-01T04:48:33.681Z,5.10
2019-03-01T04:51:05.555Z,5.00
2019-03-01T04:53:37.260Z,5.73
2019-03-01T04:56:10.207Z,5.17
2019-03-01T04:58:42.120Z,5.40
2019-03-01T05:01:15.119Z,6.53
2019-03-01T05:03:52.877Z,5.93
2019-03-01T05:06:24.558Z,5.90
2019-03-01T05:08:56.305Z,6.57
2019-03-01T05:11:27.984Z,5.50
2019-03-01T05:14:00.796Z,5.47
2019-03-01T05:16:32.656Z,5.43
2019-03-01T05:19:04.312Z,4.47
2019-03-01T05:21:36.064Z,5.53
2019-03-01T05:24:07.840Z,5.93
2019-03-01T05:26:39.610Z,5.50
2019-03-01T05:29:11.268Z,5.70
2019-03-01T05:31:42.872Z,5.10
2019-03-01T05:34:14.705Z,6.00
2019-03-01T05:36:46.432Z,6.20
2019-03-01T05:39:18.163Z,6.00
2019-03-01T05:41:49.854Z,5.40
2019-03-01T05:44:21.415Z,5.70
2019-03-01T05:46:53.042Z,6.00
2019-03-01T05:49:24.745Z,6.03
2019-03-01T05:51:56.475Z,5.87
2019-03-01T05:54:28.114Z,5.70
2019-03-01T05:56:59.822Z,6.50
2019-03-01T05:59:34.582Z,6.07
2019-03-01T06:02:55.625Z,6.77
2019-03-01T06:05:31.975Z,6.03
2019-03-01T06:08:34.767Z,6.07
2019-03-01T06:11:22.987Z,6.30
2019-03-01T06:14:35.742Z,6.77
2019-03-01T06:17:37.407Z,6.10
2019-03-01T06:20:49.058Z,6.47
2019-03-01T06:23:54.830Z,6.77
2019-03-01T06:27:10.060Z,6.33
2019-03-01T06:30:23.692Z,7.00
2019-03-01T06:33:13.904Z,6.57
2019-03-01T06:36:03.280Z,6.70
2019-03-01T06:39:25.847Z,7.60
2019-03-01T06:42:32.058Z,9.20
2019-03-01T06:45:32.208Z,18.30
2019-03-01T06:48:04.064Z,12.40
2019-03-01T06:50:55.011Z,11.63
2019-03-01T06:53:27.046Z,7.50
2019-03-01T06:56:03.685Z,7.10
2019-03-01T06:59:04.225Z,6.57
2019-03-01T07:01:41.158Z,9.50
2019-03-01T07:04:16.198Z,8.33
2019-03-01T07:06:47.969Z,7.47
2019-03-01T07:09:19.660Z,7.23
2019-03-01T07:11:51.382Z,7.40
2019-03-01T07:14:23.182Z,8.30
2019-03-01T07:16:54.871Z,7.23
2019-03-01T07:19:26.708Z,7.27
2019-03-01T07:21:58.548Z,7.50
2019-03-01T07:24:30.758Z,8.00
2019-03-01T07:27:02.508Z,8.13
2019-03-01T07:29:34.375Z,7.60
2019-03-01T07:32:06.070Z,7.37
2019-03-01T07:34:37.905Z,7.17
2019-03-01T07:37:09.687Z,7.63
2019-03-01T07:39:41.391Z,7.20
2019-03-01T07:42:13.060Z,7.70
2019-03-01T07:44:44.767Z,6.60
2019-03-01T07:47:17.412Z,7.47
2019-03-01T07:49:49.120Z,7.30
2019-03-01T07:52:20.820Z,6.73
2019-03-01T07:54:53.679Z,5.83
2019-03-01T07:57:25.522Z,5.80
2019-03-01T07:59:58.482Z,6.00
2019-03-01T08:02:30.202Z,6.30
2019-03-01T08:05:04.222Z,6.47
2019-03-01T08:07:36.511Z,7.10
2019-03-01T08:10:10.232Z,6.90
2019-03-01T08:12:42.343Z,6.43
2019-03-01T08:15:15.879Z,6.10
2019-03-01T08:17:47.809Z,7.23
2019-03-01T08:20:19.497Z,6.87
2019-03-01T08:22:51.311Z,6.43
2019-03-01T08:25:24.536Z,7.40
2019-03-01T08:27:56.588Z,6.87
2019-03-01T08:30:29.368Z,6.97
2019-03-01T08:33:02.738Z,6.50
2019-03-01T08:35:34.509Z,6.83
2019-03-01T08:38:06.198Z,6.63
2019-03-01T08:40:37.796Z,5.87
2019-03-01T08:43:12.955Z,6.67
2019-03-01T08:45:42.927Z,6.40
2019-03-01T08:48:14.591Z,6.60
2019-03-01T08:50:46.790Z,6.63
2019-03-01T08:53:18.521Z,6.00
2019-03-01T08:55:52.127Z,6.00
2019-03-01T08:58:23.796Z,5.43
2019-03-01T09:00:59.603Z,5.77
2019-03-01T09:03:32.899Z,5.97
2019-03-01T09:06:04.726Z,6.47
2019-03-01T09:08:36.471Z,6.80
2019-03-01T09:11:09.354Z,6.43
2019-03-01T09:13:41.730Z,5.47
2019-03-01T09:16:13.439Z,5.90
2019-03-01T09:18:46.587Z,7.10
2019-03-01T09:21:18.530Z,6.47
2019-03-01T09:23:52.086Z,6.03
2019-03-01T09:26:24.024Z,5.93
2019-03-01T09:28:55.876Z,6.33
2019-03-01T09:31:28.661Z,6.10
2019-03-01T09:34:00.339Z,6.27
2019-03-01T09:36:38.913Z,5.60
2019-03-01T09:39:14.510Z,6.20
2019-03-01T09:41:44.777Z,5.70
2019-03-01T09:44:16.726Z,6.20
2019-03-01T09:46:48.751Z,5.73
2019-03-01T09:49:21.434Z,6.37
2019-03-01T09:51:53.609Z,7.00
2019-03-01T09:54:25.377Z,6.17
2019-03-01T09:56:57.232Z,7.00
2019-03-01T09:59:28.914Z,5.67
2019-03-01T10:02:00.810Z,6.63
2019-03-01T10:04:32.564Z,6.37
2019-03-01T10:07:04.536Z,6.43
2019-03-01T10:09:36.242Z,5.70
2019-03-01T10:12:07.983Z,6.30
2019-03-01T10:14:39.742Z,6.53
2019-03-01T10:17:11.503Z,8.27
2019-03-01T10:19:43.243Z,8.20
2019-03-01T10:22:15.079Z,7.13
2019-03-01T10:24:46.925Z,7.63
2019-03-01T10:27:18.586Z,7.03
2019-03-01T10:29:50.355Z,7.63
2019-03-01T10:32:21.888Z,7.50
2019-03-01T10:34:53.617Z,8.30
2019-03-01T10:37:25.486Z,7.30
2019-03-01T10:39:57.051Z,6.93
2019-03-01T10:42:29.924Z,7.83
2019-03-01T10:45:01.696Z,7.33
2019-03-01T10:47:34.144Z,7.30
2019-03-01T10:50:06.519Z,8.10
2019-03-01T10:52:38.228Z,8.00
2019-03-01T10:55:13.275Z,7.60
2019-03-01T10:57:45.137Z,8.10
2019-03-01T11:00:21.332Z,8.38
2019-03-01T11:02:53.286Z,8.33
2019-03-01T11:05:25.341Z,8.13
2019-03-01T11:07:57.188Z,8.33
2019-03-01T11:10:31.006Z,8.70
2019-03-01T11:13:02.574Z,8.70
2019-03-01T11:15:35.424Z,8.03
2019-03-01T11:18:07.195Z,9.23
2019-03-01T11:20:38.990Z,8.30
2019-03-01T11:23:10.797Z,7.95
2019-03-01T11:25:43.620Z,7.60
2019-03-01T11:28:15.429Z,8.00
2019-03-01T11:30:48.395Z,8.77
2019-03-01T11:33:20.191Z,8.33
2019-03-01T11:35:51.902Z,9.37
2019-03-01T11:38:23.551Z,7.97
2019-03-01T11:40:56.446Z,7.60
2019-03-01T11:43:28.145Z,8.58
2019-03-01T11:46:00.658Z,8.63
2019-03-01T11:48:32.826Z,8.43
2019-03-01T11:51:04.525Z,7.77
2019-03-01T11:53:36.361Z,8.03
2019-03-01T11:56:08.242Z,7.67
2019-03-01T11:58:40.115Z,10.15
2019-03-01T12:01:17.243Z,8.35
2019-03-01T12:03:46.216Z,7.57
2019-03-01T12:06:17.888Z,8.33
2019-03-01T12:08:50.898Z,8.13
2019-03-01T12:11:22.689Z,8.80
2019-03-01T12:13:54.445Z,8.23
2019-03-01T12:16:26.316Z,9.70
2019-03-01T12:18:58.243Z,7.70
2019-03-01T12:21:29.862Z,9.33
2019-03-01T12:24:01.546Z,8.37
2019-03-01T12:26:33.222Z,8.50
2019-03-01T12:29:04.789Z,8.43
2019-03-01T12:31:36.531Z,9.23
2019-03-01T12:34:08.389Z,8.40
2019-03-01T12:36:40.267Z,8.93
2019-03-01T12:39:12.006Z,10.63
2019-03-01T12:41:43.922Z,10.20
2019-03-01T12:44:16.776Z,9.47
2019-03-01T12:46:48.446Z,10.10
2019-03-01T12:49:19.966Z,11.17
2019-03-01T12:51:54.506Z,11.30
2019-03-01T12:54:26.365Z,11.87
2019-03-01T12:56:58.177Z,12.23
2019-03-01T12:59:29.751Z,11.07
2019-03-01T13:02:01.491Z,11.70
2019-03-01T13:04:33.061Z,13.03
2019-03-01T13:07:04.953Z,13.77
2019-03-01T13:09:36.685Z,14.00
2019-03-01T13:12:08.355Z,11.67
2019-03-01T13:14:40.335Z,13.70
2019-03-01T13:17:12.085Z,12.53
2019-03-01T13:19:43.953Z,12.90
2019-03-01T13:22:15.864Z,13.40
2019-03-01T13:24:50.355Z,11.73
2019-03-01T13:27:20.885Z,12.40
2019-03-01T13:29:55.218Z,12.70
2019-03-01T13:32:26.074Z,14.17
2019-03-01T13:34:57.734Z,14.53
2019-03-01T13:37:29.461Z,14.27
2019-03-01T13:40:01.280Z,14.60
2019-03-01T13:42:33.030Z,12.60
2019-03-01T13:45:05.139Z,14.73
2019-03-01T13:47:36.844Z,13.03
2019-03-01T13:50:09.123Z,13.93
2019-03-01T13:52:40.913Z,16.27
2019-03-01T13:55:14.749Z,15.37
2019-03-01T13:57:50.056Z,14.93
2019-03-01T14:00:20.255Z,15.20
2019-03-01T14:02:53.324Z,16.23
2019-03-01T14:05:26.771Z,15.17
2019-03-01T14:08:05.955Z,14.43
2019-03-01T14:10:32.064Z,15.97
2019-03-01T14:13:03.719Z,15.57
2019-03-01T14:15:38.522Z,16.83
2019-03-01T14:18:08.814Z,15.40
2019-03-01T14:20:40.624Z,15.20
2019-03-01T14:23:12.373Z,14.83
2019-03-01T14:25:44.763Z,14.77
2019-03-01T14:28:16.494Z,13.10
2019-03-01T14:30:48.205Z,13.77
2019-03-01T14:33:19.809Z,13.43
2019-03-01T14:35:51.453Z,14.20
2019-03-01T14:38:23.169Z,19.10
2019-03-01T14:40:56.068Z,17.67
2019-03-01T14:43:28.316Z,17.47
2019-03-01T14:45:59.889Z,14.67
2019-03-01T14:48:31.568Z,16.37
2019-03-01T14:51:03.226Z,12.37
2019-03-01T14:53:35.933Z,14.03
2019-03-01T14:56:21.558Z,12.97
2019-03-01T14:58:58.794Z,13.00
2019-03-01T15:01:46.706Z,13.17
2019-03-01T15:04:18.456Z,15.27
2019-03-01T15:06:51.489Z,16.27
2019-03-01T15:09:23.597Z,16.53
2019-03-01T15:11:55.344Z,14.57
2019-03-01T15:14:27.246Z,14.30
2019-03-01T15:16:58.916Z,16.73
2019-03-01T15:19:30.596Z,17.10
2019-03-01T15:22:03.930Z,17.93
2019-03-01T15:24:36.320Z,21.30
2019-03-01T15:27:08.829Z,24.67
2019-03-01T15:29:40.592Z,23.00
2019-03-01T15:32:12.582Z,22.70
2019-03-01T15:34:44.507Z,20.80
2019-03-01T15:37:16.228Z,20.87
2019-03-01T15:39:47.994Z,17.33
2019-03-01T15:42:21.140Z,17.53
2019-03-01T15:44:53.198Z,15.93
2019-03-01T15:47:26.645Z,18.53
2019-03-01T15:49:58.475Z,20.20
2019-03-01T15:52:30.298Z,19.63
2019-03-01T15:55:02.010Z,20.20
2019-03-01T15:57:34.277Z,20.23
2019-03-01T16:00:06.405Z,17.90
2019-03-01T16:02:40.152Z,19.20
2019-03-01T16:05:12.497Z,18.73
2019-03-01T16:07:44.497Z,20.73
2019-03-01T16:10:16.239Z,21.40
2019-03-01T16:12:48.018Z,20.10
2019-03-01T16:15:21.014Z,24.80
2019-03-01T16:17:52.806Z,19.53
2019-03-01T16:20:25.163Z,20.77
2019-03-01T16:22:57.877Z,20.13
2019-03-01T16:25:29.497Z,20.00
2019-03-01T16:28:02.377Z,19.80
2019-03-01T16:30:33.933Z,19.87
2019-03-01T16:33:05.855Z,21.60
2019-03-01T16:35:37.636Z,20.60
2019-03-01T16:38:09.587Z,22.03
2019-03-01T16:40:41.306Z,19.43
2019-03-01T16:43:13.116Z,19.27
2019-03-01T16:45:45.221Z,22.03
2019-03-01T16:48:17.766Z,20.00
2019-03-01T16:50:49.588Z,44.60
2019-03-01T16:53:21.277Z,24.27
2019-03-01T16:55:53.055Z,22.07
2019-03-01T16:58:28.281Z,20.77
2019-03-01T17:00:58.116Z,16.90
2019-03-01T17:03:30.910Z,18.37
2019-03-01T17:06:02.590Z,18.13
2019-03-01T17:08:36.344Z,19.63
2019-03-01T17:11:07.805Z,19.67
2019-03-01T17:13:39.631Z,17.77
2019-03-01T17:16:11.275Z,17.33
2019-03-01T17:18:44.631Z,19.27
2019-03-01T17:21:16.629Z,17.03
2019-03-01T17:23:48.538Z,18.53
2019-03-01T17:26:20.378Z,17.23
2019-03-01T17:28:52.030Z,21.67
2019-03-01T17:31:26.947Z,17.67
2019-03-01T17:33:57.102Z,17.10
2019-03-01T17:36:28.737Z,18.33
2019-03-01T17:39:00.402Z,17.53
2019-03-01T17:41:33.569Z,17.20
2019-03-01T17:44:08.654Z,18.67
2019-03-01T17:46:38.931Z,18.30
2019-03-01T17:49:11.998Z,20.13
2019-03-01T17:51:43.731Z,21.17
2019-03-01T17:54:15.444Z,20.37
2019-03-01T17:56:47.348Z,19.00
2019-03-01T17:59:18.910Z,23.83
2019-03-01T18:01:50.596Z,21.53
2019-03-01T18:04:22.249Z,29.90
2019-03-01T18:06:53.969Z,19.73
2019-03-01T18:09:26.955Z,21.60
2019-03-01T18:11:58.773Z,22.67
2019-03-01T18:14:33.786Z,32.00
2019-03-01T18:17:03.822Z,38.30
2019-03-01T18:19:35.533Z,24.53
2019-03-01T18:22:07.285Z,40.20
2019-03-01T18:24:38.995Z,31.83
2019-03-01T18:27:12.276Z,30.43
2019-03-01T18:29:43.966Z,30.60
2019-03-01T18:32:17.222Z,31.57
2019-03-01T18:34:49.186Z,42.70
2019-03-01T18:37:20.867Z,36.37
2019-03-01T18:39:52.955Z,20.77
2019-03-01T18:42:24.745Z,33.83
2019-03-01T18:44:56.398Z,47.13
2019-03-01T18:47:30.674Z,37.80
2019-03-01T18:50:01.200Z,43.03
2019-03-01T18:52:32.835Z,34.93
2019-03-01T18:55:04.554Z,42.97
2019-03-01T18:57:38.584Z,40.57
2019-03-01T19:00:21.723Z,39.00
2019-03-01T19:02:53.687Z,33.97
2019-03-01T19:05:27.331Z,20.00
2019-03-01T19:08:00.893Z,31.10
2019-03-01T19:10:32.522Z,41.10
2019-03-01T19:13:04.322Z,31.20
2019-03-01T19:15:36.182Z,34.27
2019-03-01T19:18:08.016Z,30.00
2019-03-01T19:20:41.545Z,19.70
2019-03-01T19:23:13.592Z,34.13
2019-03-01T19:25:46.640Z,22.77
2019-03-01T19:28:18.192Z,20.87
2019-03-01T19:30:50.523Z,17.07
2019-03-01T19:33:22.538Z,16.07
2019-03-01T19:35:54.222Z,14.40
2019-03-01T19:38:36.861Z,16.73
2019-03-01T19:41:08.697Z,15.23
2019-03-01T19:43:41.695Z,15.17
2019-03-01T19:46:15.695Z,16.97
2019-03-01T19:48:47.724Z,21.57
2019-03-01T19:51:19.414Z,22.80
2019-03-01T19:53:51.322Z,35.20
2019-03-01T19:56:25.866Z,41.87
2019-03-01T19:58:56.464Z,40.13
2019-03-01T20:01:29.236Z,21.37
2019-03-01T20:04:00.887Z,18.17
2019-03-01T20:06:33.826Z,19.30
2019-03-01T20:09:08.476Z,22.63
2019-03-01T20:11:40.573Z,22.80
2019-03-01T20:14:12.276Z,19.03
2019-03-01T20:16:44.105Z,23.70
2019-03-01T20:19:17.037Z,23.63
2019-03-01T20:21:49.238Z,16.33
2019-03-01T20:24:20.925Z,14.87
2019-03-01T20:26:52.565Z,13.23
2019-03-01T20:29:24.297Z,13.83
2019-03-01T20:31:55.896Z,17.83
2019-03-01T20:34:27.647Z,14.97
2019-03-01T20:36:59.400Z,15.67
2019-03-01T20:39:33.185Z,15.80
2019-03-01T20:42:04.563Z,15.23
2019-03-01T20:44:36.342Z,16.03
2019-03-01T20:47:08.017Z,18.97
2019-03-01T20:49:40.457Z,19.40
2019-03-01T20:52:12.362Z,15.93
2019-03-01T20:54:44.224Z,14.37
2019-03-01T20:57:15.862Z,14.07
2019-03-01T20:59:50.548Z,14.97
2019-03-01T21:02:20.942Z,16.23
2019-03-01T21:04:53.652Z,15.93
2019-03-01T21:07:25.874Z,16.90
2019-03-01T21:09:57.454Z,19.67
2019-03-01T21:12:29.133Z,20.30
2019-03-01T21:15:01.905Z,21.97
2019-03-01T21:17:35.434Z,16.47
2019-03-01T21:20:08.394Z,17.63
2019-03-01T21:22:41.009Z,17.03
2019-03-01T21:25:14.624Z,16.53
2019-03-01T21:27:47.517Z,17.33
2019-03-01T21:30:24.023Z,16.87
2019-03-01T21:32:55.474Z,17.83
2019-03-01T21:35:27.148Z,17.00
2019-03-01T21:37:59.316Z,18.33
2019-03-01T21:40:31.475Z,15.93
2019-03-01T21:43:04.393Z,16.40
2019-03-01T21:45:36.205Z,16.57
2019-03-01T21:48:07.873Z,15.70
2019-03-01T21:50:42.431Z,17.07
2019-03-01T21:53:12.913Z,17.20
2019-03-01T21:55:44.558Z,15.50
2019-03-01T21:58:16.291Z,17.30
2019-03-01T22:00:47.921Z,16.17
2019-03-01T22:03:19.541Z,16.23
2019-03-01T22:05:51.273Z,18.70
2019-03-01T22:08:23.024Z,18.23
2019-03-01T22:10:54.801Z,17.07
2019-03-01T22:13:26.432Z,17.77
2019-03-01T22:16:00.998Z,17.63
2019-03-01T22:18:31.589Z,17.37
2019-03-01T22:21:04.431Z,17.67
2019-03-01T22:23:36.078Z,17.93
2019-03-01T22:26:09.725Z,20.73
2019-03-01T22:28:41.199Z,19.13
2019-03-01T22:31:12.836Z,18.27
2019-03-01T22:33:44.507Z,19.23
2019-03-01T22:36:18.192Z,18.67
2019-03-01T22:38:49.480Z,18.30
2019-03-01T22:41:21.288Z,17.80
2019-03-01T22:43:53.194Z,19.60
2019-03-01T22:46:25.916Z,17.33
2019-03-01T22:48:57.673Z,17.73
2019-03-01T22:51:29.341Z,20.27
2019-03-01T22:54:02.252Z,19.30
2019-03-01T22:56:33.803Z,19.03
2019-03-01T22:59:08.642Z,18.90
2019-03-01T23:01:49.103Z,20.17
2019-03-01T23:04:20.826Z,19.90
2019-03-01T23:06:52.856Z,19.37
2019-03-01T23:09:25.911Z,19.33
2019-03-01T23:11:59.151Z,18.57
2019-03-01T23:14:31.892Z,19.87
2019-03-01T23:17:03.822Z,19.47
2019-03-01T23:19:35.373Z,19.80
2019-03-01T23:22:10.928Z,19.67
2019-03-01T23:24:41.874Z,19.03
2019-03-01T23:27:13.631Z,20.00
2019-03-01T23:29:45.300Z,19.93
2019-03-01T23:32:16.958Z,19.40
2019-03-01T23:34:48.595Z,18.90
2019-03-01T23:37:20.305Z,20.13
2019-03-01T23:39:51.939Z,17.30
2019-03-01T23:42:23.571Z,18.67
2019-03-01T23:44:55.201Z,18.80
2019-03-01T23:47:26.807Z,19.50
2019-03-01T23:49:59.290Z,20.63
2019-03-01T23:52:31.800Z,18.63
2019-03-01T23:55:03.398Z,20.37
2019-03-01T23:57:37.992Z,20.07
